createdAt,value
2023-03-23T15:59:58.170Z,100.00
2023-03-23T16:02:27.244Z,100.00
2023-03-23T16:04:54.977Z,100.00
2023-03-23T16:07:24.855Z,100.00
2023-03-23T16:09:52.498Z,100.00
2023-03-23T16:12:20.325Z,100.00
2023-03-23T16:14:48.107Z,98.94
2023-03-23T16:17:19.647Z,100.00
2023-03-23T16:19:48.953Z,100.00
2023-03-23T16:22:18.460Z,100.00
2023-03-23T16:24:46.338Z,100.00
2023-03-23T16:27:14.356Z,100.00
2023-03-23T16:30:02.399Z,100.00
2023-03-23T16:32:29.789Z,99.72
2023-03-23T16:34:58.753Z,100.00
2023-03-23T16:37:26.527Z,100.00
2023-03-23T16:39:54.196Z,100.00
2023-03-23T16:42:21.793Z,100.00
2023-03-23T16:44:50.665Z,100.00
2023-03-23T16:47:19.047Z,100.00
2023-03-23T16:49:46.813Z,100.00
2023-03-23T16:52:16.043Z,100.00
2023-03-23T16:54:43.811Z,100.00
2023-03-23T16:57:11.575Z,100.00
2023-03-23T16:59:39.297Z,100.00
2023-03-23T17:02:06.961Z,100.00
2023-03-23T17:04:35.250Z,100.00
2023-03-23T17:07:03.154Z,100.00
2023-03-23T17:09:32.333Z,100.00
2023-03-23T17:12:00.260Z,100.00
2023-03-23T17:14:27.888Z,100.00
2023-03-23T17:16:56.707Z,100.00
2023-03-23T17:19:24.567Z,100.00
2023-03-23T17:21:52.474Z,100.00
2023-03-23T17:24:20.308Z,100.00
2023-03-23T17:26:49.235Z,100.00
2023-03-23T17:29:16.973Z,100.00
2023-03-23T17:31:44.737Z,100.00
2023-03-23T17:34:12.442Z,100.00
2023-03-23T17:36:40.128Z,100.00
2023-03-23T17:39:07.811Z,100.00
2023-03-23T17:41:35.711Z,100.00
2023-03-23T17:44:04.817Z,100.00
2023-03-23T17:46:32.549Z,100.00
2023-03-23T17:49:00.169Z,100.00
2023-03-23T17:51:27.941Z,100.00
2023-03-23T17:53:55.864Z,100.00
2023-03-23T17:56:23.935Z,100.00
2023-03-23T17:58:51.721Z,100.00
2023-03-23T18:01:20.943Z,100.00
2023-03-23T18:03:48.738Z,100.00
2023-03-23T18:06:16.492Z,100.00
2023-03-23T18:08:44.579Z,100.00
2023-03-23T18:11:12.266Z,100.00
2023-03-23T18:13:40.436Z,100.00
2023-03-23T18:16:08.995Z,100.00
2023-03-23T18:18:38.067Z,100.00
2023-03-23T18:21:08.499Z,100.00
2023-03-23T18:23:46.064Z,100.00
2023-03-23T18:26:17.904Z,100.00
2023-03-23T18:28:45.693Z,100.00
2023-03-23T18:31:16.909Z,100.00
2023-03-23T18:33:49.462Z,100.00
2023-03-23T18:36:20.093Z,100.00
2023-03-23T18:38:48.763Z,100.00
2023-03-23T18:41:18.068Z,100.00
2023-03-23T18:43:46.085Z,100.00
2023-03-23T18:46:14.231Z,100.00
2023-03-23T18:48:42.045Z,100.00
2023-03-23T18:51:11.808Z,100.00
2023-03-23T18:53:39.954Z,100.00
2023-03-23T18:56:10.526Z,100.00
2023-03-23T18:58:39.360Z,100.00
2023-03-23T19:01:09.074Z,100.00
2023-03-23T19:03:37.950Z,100.00
2023-03-23T19:06:07.029Z,100.00
2023-03-23T19:08:36.036Z,100.00
2023-03-23T19:11:05.810Z,100.00
2023-03-23T19:13:36.878Z,100.00
2023-03-23T19:16:05.721Z,100.00
2023-03-23T19:18:34.091Z,100.00
2023-03-23T19:23:32.460Z,100.00
2023-03-23T19:26:01.733Z,100.00
2023-03-23T19:31:00.198Z,100.00
2023-03-23T19:33:27.989Z,100.00
2023-03-23T19:36:06.739Z,100.00
2023-03-23T19:38:37.727Z,100.00
2023-03-23T19:41:07.263Z,100.00
2023-03-23T19:43:36.288Z,100.00
2023-03-23T19:46:05.412Z,100.00
2023-03-23T19:48:33.179Z,100.00
2023-03-23T19:51:01.525Z,100.00
2023-03-23T19:53:29.190Z,100.00
2023-03-23T19:55:57.010Z,100.00
2023-03-23T19:58:27.184Z,100.00
2023-03-23T20:00:54.885Z,98.54
2023-03-23T20:03:22.764Z,95.44
2023-03-23T20:05:50.729Z,97.08
2023-03-23T20:08:18.577Z,91.59
2023-03-23T20:10:46.194Z,89.02
2023-03-23T20:13:13.866Z,88.07
2023-03-23T20:15:42.969Z,86.64
2023-03-23T20:18:14.422Z,86.36
2023-03-23T20:20:42.140Z,85.68
2023-03-23T20:23:09.800Z,84.92
2023-03-23T20:25:37.464Z,85.82
2023-03-23T20:28:06.147Z,84.62
2023-03-23T20:30:34.407Z,84.25
2023-03-23T20:33:03.475Z,83.39
2023-03-23T20:35:31.823Z,81.23
2023-03-23T20:38:00.147Z,80.30
2023-03-23T20:40:27.759Z,78.56
2023-03-23T20:42:57.714Z,78.17
2023-03-23T20:45:25.736Z,77.42
2023-03-23T20:47:54.025Z,77.98
2023-03-23T20:50:23.033Z,78.09
2023-03-23T20:52:50.852Z,76.57
2023-03-23T20:55:18.938Z,77.04
2023-03-23T20:57:46.937Z,75.94
2023-03-23T21:00:17.882Z,75.88
2023-03-23T21:02:49.443Z,77.34
2023-03-23T21:05:17.157Z,76.57
2023-03-23T21:07:46.677Z,75.54
2023-03-23T21:10:14.386Z,76.01
2023-03-23T21:12:42.012Z,75.11
2023-03-23T21:15:10.039Z,75.53
2023-03-23T21:17:37.763Z,75.55
2023-03-23T21:20:08.130Z,74.58
2023-03-23T21:22:35.936Z,73.18
2023-03-23T21:25:05.653Z,72.63
2023-03-23T21:27:33.398Z,73.45
2023-03-23T21:30:01.173Z,72.96
2023-03-23T21:32:28.989Z,71.98
2023-03-23T21:34:58.707Z,71.96
2023-03-23T21:37:26.342Z,71.34
2023-03-23T21:39:54.019Z,71.04
2023-03-23T21:42:30.277Z,71.43
2023-03-23T21:44:58.116Z,70.49
2023-03-23T21:47:26.462Z,71.63
2023-03-23T21:49:56.528Z,71.48
2023-03-23T21:52:24.507Z,70.61
2023-03-23T21:54:52.658Z,71.07
2023-03-23T21:57:21.262Z,72.30
2023-03-23T21:59:50.394Z,71.21
2023-03-23T22:02:18.127Z,72.24
2023-03-23T22:04:46.039Z,71.14
2023-03-23T22:07:14.340Z,69.91
2023-03-23T22:09:44.795Z,69.53
2023-03-23T22:12:13.250Z,69.54
2023-03-23T22:14:41.123Z,69.86
2023-03-23T22:17:10.271Z,69.55
2023-03-23T22:19:39.291Z,69.88
2023-03-23T22:22:07.186Z,68.41
2023-03-23T22:24:35.059Z,69.32
2023-03-23T22:27:02.858Z,68.98
2023-03-23T22:29:30.649Z,71.15
2023-03-23T22:31:58.846Z,71.22
2023-03-23T22:34:28.029Z,70.08
2023-03-23T22:36:56.328Z,72.78
2023-03-23T22:39:24.324Z,72.62
2023-03-23T22:41:52.097Z,76.17
2023-03-23T22:44:20.076Z,76.23
2023-03-23T22:46:47.855Z,75.02
2023-03-23T22:49:15.762Z,73.70
2023-03-23T22:51:45.508Z,73.81
2023-03-23T22:54:13.382Z,77.41
2023-03-23T22:56:41.136Z,76.75
2023-03-23T22:59:09.165Z,77.34
2023-03-23T23:01:37.112Z,76.52
2023-03-23T23:04:05.212Z,75.37
2023-03-23T23:06:33.039Z,73.36
2023-03-23T23:09:02.954Z,75.18
2023-03-23T23:11:31.313Z,73.63
2023-03-23T23:13:59.156Z,75.24
2023-03-23T23:16:27.627Z,74.11
2023-03-23T23:18:55.920Z,73.50
2023-03-23T23:21:25.995Z,72.34
2023-03-23T23:23:54.279Z,72.06
2023-03-23T23:26:23.624Z,71.25
2023-03-23T23:28:51.883Z,71.29
2023-03-23T23:31:26.106Z,71.19
2023-03-23T23:33:55.510Z,71.46
2023-03-23T23:36:23.299Z,71.50
2023-03-23T23:38:51.474Z,71.16
2023-03-23T23:41:19.239Z,71.54
2023-03-23T23:43:48.402Z,72.11
2023-03-23T23:46:16.203Z,72.43
2023-03-23T23:48:45.010Z,72.55
2023-03-23T23:51:15.223Z,77.50
2023-03-23T23:53:44.060Z,78.88
2023-03-23T23:56:13.663Z,81.49
2023-03-23T23:58:41.416Z,82.13
